首页
METAR-TAF:

METAR-TAF

机场 :

Four Corners Regional Airport

Farmington, 新墨西哥州, 美国

纬度: 36-44-37N, 经度: 108-13-45W, 海拔: 1677米

当前天气观测

该预报发布于38分钟前的19:53 UTC
风速5节,风向
温度 31°C
湿度 26%
气压 1026 hPa
能見度: 16.1公里
天空无云

METAR: KFMN 231953Z 09005KT 10SM CLR 31/09 A3030 RMK AO2 SLP189 T03060094

时间: 14:31 (20:31 UTC)

预报

该预报发布于2小时和57分钟前的17:34 UTC
预报有效从23日的 18点(UTC)到 24日的 18点(UTC)
风速8节,风向南转南东
能見度: 10公里
散云层高于20000英尺
从 24日的 0000点(UTC)
风速16节,风向东北,有时为26节阵风
能見度: 10公里
多云层高于9000英尺, 积雨云.
附近有雷暴
从 24日的 0300点(UTC)
风速15节,风向,有时为23节阵风
能見度: 10公里
多云层高于8000英尺
附近有阵雨
从 24日的 0600点(UTC)
风速6节,风向
能見度: 10公里
多云层高于10000英尺

TAF: KFMN 231734Z 2318/2418 16008KT P6SM SCT200 FM240000 04016G26KT P6SM VCTS BKN090CB FM240300 08015G23KT P6SM VCSH BKN080 FM240600 09006KT P6SM BKN100

超过4000个机场的气象观测和天气预报(METAR&TAF报告)。

可查询的气象台以黄色和红色小点在地图上表示。

将鼠标移到小点上方,可查看气象台名称。

然后点击查看天气观测和预报。

如需切换地图:点击带黑十字的绿色按钮放大地图;点击带横线的绿色按钮缩小地图;或者点击绿色箭头查看邻近地区的地图。


METAR-TAF: